createdAt,value
2018-12-20T00:01:21.149Z,-0.45
2018-12-20T00:03:50.316Z,-0.44
2018-12-20T00:06:19.386Z,-0.43
2018-12-20T00:08:48.700Z,-0.47
2018-12-20T00:11:17.874Z,-0.56
2018-12-20T00:13:47.015Z,-0.63
2018-12-20T00:16:16.017Z,-0.64
2018-12-20T00:18:45.281Z,-0.73
2018-12-20T00:21:14.351Z,-0.68
2018-12-20T00:23:43.421Z,-0.73
2018-12-20T00:26:12.534Z,-0.65
2018-12-20T00:28:41.789Z,-0.64
2018-12-20T00:31:13.673Z,-0.62
2018-12-20T00:33:41.824Z,-0.58
2018-12-20T00:36:10.983Z,-0.57
2018-12-20T00:38:40.524Z,-0.53
2018-12-20T00:41:09.507Z,-0.48
2018-12-20T00:43:38.662Z,-0.45
2018-12-20T00:46:07.797Z,-0.42
2018-12-20T00:48:36.724Z,-0.39
2018-12-20T00:51:05.641Z,-0.36
2018-12-20T00:53:34.665Z,-0.33
2018-12-20T00:56:03.689Z,-0.29
2018-12-20T00:58:32.597Z,-0.35
2018-12-20T01:01:01.433Z,-0.41
2018-12-20T01:03:30.675Z,-0.35
2018-12-20T01:05:59.809Z,-0.37
2018-12-20T01:08:28.779Z,-0.34
2018-12-20T01:10:57.888Z,-0.30
2018-12-20T01:13:27.149Z,-0.30
2018-12-20T01:15:56.344Z,-0.36
2018-12-20T01:18:25.372Z,-0.41
2018-12-20T01:20:54.582Z,-0.41
2018-12-20T01:23:23.671Z,-0.37
2018-12-20T01:25:52.609Z,-0.33
2018-12-20T01:28:21.719Z,-0.35
2018-12-20T01:30:51.159Z,-0.36
2018-12-20T01:33:20.455Z,-0.37
2018-12-20T01:35:49.722Z,-0.39
2018-12-20T01:38:18.799Z,-0.37
2018-12-20T01:40:47.882Z,-0.40
2018-12-20T01:43:16.974Z,-0.41
2018-12-20T01:45:46.044Z,-0.45
2018-12-20T01:48:15.185Z,-0.51
2018-12-20T01:50:44.203Z,-0.52
2018-12-20T01:53:13.235Z,-0.62
2018-12-20T01:55:42.250Z,-0.67
2018-12-20T01:58:11.452Z,-0.70
2018-12-20T02:00:40.487Z,-0.70
2018-12-20T02:03:09.545Z,-0.72
2018-12-20T02:05:38.690Z,-0.75
2018-12-20T02:08:07.821Z,-0.69
2018-12-20T02:10:36.846Z,-0.66
2018-12-20T02:13:05.776Z,-0.72
2018-12-20T02:15:35.062Z,-0.67
2018-12-20T02:18:03.983Z,-0.63
2018-12-20T02:20:33.056Z,-0.70
2018-12-20T02:23:02.210Z,-0.66
2018-12-20T02:25:31.292Z,-0.67
2018-12-20T02:28:00.419Z,-0.66
2018-12-20T02:30:29.351Z,-0.66
2018-12-20T02:32:58.640Z,-0.66
2018-12-20T02:35:27.645Z,-0.70
2018-12-20T02:37:56.723Z,-0.78
2018-12-20T02:40:25.749Z,-0.85
2018-12-20T02:42:55.065Z,-0.93
2018-12-20T02:45:24.137Z,-0.94
2018-12-20T02:47:53.283Z,-0.93
2018-12-20T02:50:22.467Z,-0.97
2018-12-20T02:52:51.886Z,-1.00
2018-12-20T02:55:21.006Z,-0.96
2018-12-20T02:57:50.211Z,-0.95
2018-12-20T03:00:19.396Z,-1.00
2018-12-20T03:02:48.417Z,-0.91
2018-12-20T03:05:17.399Z,-0.84
2018-12-20T03:07:46.403Z,-0.76
2018-12-20T03:10:15.786Z,-0.72
2018-12-20T03:12:44.888Z,-0.66
2018-12-20T03:15:19.845Z,-0.67
2018-12-20T03:17:44.952Z,-0.75
2018-12-20T03:20:14.056Z,-0.79
2018-12-20T03:22:43.147Z,-0.79
2018-12-20T03:25:12.149Z,-0.86
2018-12-20T03:27:41.288Z,-0.84
2018-12-20T03:30:10.324Z,-0.80
2018-12-20T03:32:39.301Z,-0.79
2018-12-20T03:35:08.297Z,-0.74
2018-12-20T03:37:37.486Z,-0.80
2018-12-20T03:40:06.571Z,-0.83
2018-12-20T03:42:35.708Z,-0.86
2018-12-20T03:45:04.852Z,-0.91
2018-12-20T03:47:33.887Z,-0.84
2018-12-20T03:50:03.066Z,-0.82
2018-12-20T03:52:32.186Z,-0.87
2018-12-20T03:55:01.314Z,-0.83
2018-12-20T03:57:30.293Z,-0.85
2018-12-20T03:59:59.332Z,-0.79
2018-12-20T04:02:28.366Z,-0.75
2018-12-20T04:04:57.506Z,-0.73
2018-12-20T04:07:26.570Z,-0.68
2018-12-20T04:09:55.734Z,-0.79
2018-12-20T04:12:24.651Z,-0.77
2018-12-20T04:14:53.695Z,-0.74
2018-12-20T04:17:22.691Z,-0.70
2018-12-20T04:19:51.669Z,-0.68
2018-12-20T04:22:20.678Z,-0.71
2018-12-20T04:24:49.645Z,-0.71
2018-12-20T04:27:18.580Z,-0.78
2018-12-20T04:29:47.684Z,-0.76
2018-12-20T04:32:16.860Z,-0.72
2018-12-20T04:34:45.811Z,-0.76
2018-12-20T04:37:14.944Z,-0.76
2018-12-20T04:39:44.346Z,-0.68
2018-12-20T04:42:13.402Z,-0.73
2018-12-20T04:44:42.784Z,-0.79
2018-12-20T04:47:11.945Z,-0.81
2018-12-20T04:49:41.106Z,-0.86
2018-12-20T04:52:10.551Z,-0.89
2018-12-20T04:54:39.681Z,-0.97
2018-12-20T04:57:08.662Z,-1.03
2018-12-20T04:59:37.957Z,-0.99
2018-12-20T05:02:06.987Z,-1.03
2018-12-20T05:04:35.943Z,-1.02
2018-12-20T05:07:05.347Z,-1.04
2018-12-20T05:09:34.514Z,-1.09
2018-12-20T05:12:03.934Z,-1.14
2018-12-20T05:14:33.155Z,-1.14
2018-12-20T05:17:02.201Z,-1.10
2018-12-20T05:19:31.312Z,-1.12
2018-12-20T05:22:00.407Z,-1.24
2018-12-20T05:24:29.510Z,-1.27
2018-12-20T05:26:58.637Z,-1.23
2018-12-20T05:29:27.697Z,-1.17
2018-12-20T05:31:56.827Z,-1.18
2018-12-20T05:34:26.067Z,-1.13
2018-12-20T05:36:55.287Z,-1.11
2018-12-20T05:39:24.457Z,-1.09
2018-12-20T05:41:53.740Z,-1.02
2018-12-20T05:44:23.067Z,-1.10
2018-12-20T05:46:52.297Z,-1.07
2018-12-20T05:49:21.329Z,-1.02
2018-12-20T05:51:50.392Z,-0.94
2018-12-20T05:54:19.555Z,-0.93
2018-12-20T05:56:48.665Z,-0.86
2018-12-20T05:59:17.589Z,-0.83
2018-12-20T06:01:46.611Z,-0.80
2018-12-20T06:04:15.548Z,-0.75
2018-12-20T06:06:44.788Z,-0.70
2018-12-20T06:09:13.836Z,-0.69
2018-12-20T06:11:42.808Z,-0.69
2018-12-20T06:14:11.801Z,-0.68
2018-12-20T06:16:40.772Z,-0.82
2018-12-20T06:19:09.847Z,-0.74
2018-12-20T06:21:38.948Z,-0.72
2018-12-20T06:24:08.040Z,-0.80
2018-12-20T06:26:37.124Z,-0.84
2018-12-20T06:29:06.104Z,-0.82
2018-12-20T06:31:35.232Z,-0.80
2018-12-20T06:34:04.265Z,-0.78
2018-12-20T06:36:33.336Z,-0.72
2018-12-20T06:39:02.328Z,-0.66
2018-12-20T06:41:31.788Z,-0.69
2018-12-20T06:44:07.155Z,-0.62
2018-12-20T06:46:31.841Z,-0.62
2018-12-20T06:49:00.901Z,-0.62
2018-12-20T06:51:29.859Z,-0.52
2018-12-20T06:53:58.960Z,-0.41
2018-12-20T06:56:27.893Z,-0.33
2018-12-20T06:58:56.824Z,-0.31
2018-12-20T07:01:25.724Z,-0.26
2018-12-20T07:03:54.786Z,-0.17
2018-12-20T07:06:23.828Z,-0.21
2018-12-20T07:08:52.853Z,-0.27
2018-12-20T07:11:21.793Z,-0.25
2018-12-20T07:13:50.777Z,-0.14
2018-12-20T07:16:19.769Z,0.02
2018-12-20T07:18:48.741Z,0.00
2018-12-20T07:21:17.816Z,-0.07
2018-12-20T07:23:46.794Z,-0.08
2018-12-20T07:26:15.805Z,0.00
2018-12-20T07:31:16.719Z,0.14
2018-12-20T07:33:45.653Z,-0.01
2018-12-20T07:36:14.692Z,-0.09
2018-12-20T07:38:43.615Z,-0.12
2018-12-20T07:44:59.243Z,0.05
2018-12-20T07:47:28.229Z,0.07
2018-12-20T07:49:57.171Z,0.29
2018-12-20T07:52:26.169Z,0.49
2018-12-20T07:54:55.254Z,0.63
2018-12-20T07:57:24.964Z,0.69
2018-12-20T07:59:54.192Z,0.77
2018-12-20T08:02:23.177Z,0.83
2018-12-20T08:04:52.148Z,0.91
2018-12-20T08:07:21.246Z,0.77
2018-12-20T08:09:50.213Z,0.98
2018-12-20T08:12:19.246Z,1.09
2018-12-20T08:14:48.257Z,1.02
2018-12-20T08:17:17.286Z,0.91
2018-12-20T08:19:46.251Z,0.79
2018-12-20T08:22:15.213Z,0.95
2018-12-20T08:24:44.228Z,1.05
2018-12-20T08:27:13.221Z,1.29
2018-12-20T08:29:44.271Z,1.52
2018-12-20T08:32:13.197Z,1.71
2018-12-20T08:34:42.413Z,1.82
2018-12-20T08:37:11.341Z,1.84
2018-12-20T08:39:40.213Z,1.78
2018-12-20T08:42:09.179Z,1.81
2018-12-20T08:44:38.153Z,1.73
2018-12-20T08:47:07.170Z,1.86
2018-12-20T08:49:36.241Z,1.88
2018-12-20T08:52:05.237Z,1.88
2018-12-20T08:54:34.123Z,1.99
2018-12-20T08:57:04.342Z,1.95
2018-12-20T08:59:33.538Z,1.82
2018-12-20T09:02:02.421Z,1.78
2018-12-20T09:04:31.447Z,1.76
2018-12-20T09:07:00.472Z,1.63
2018-12-20T09:09:29.474Z,1.53
2018-12-20T09:11:58.464Z,1.38
2018-12-20T09:14:27.501Z,1.29
2018-12-20T09:17:02.932Z,1.30
2018-12-20T09:19:27.580Z,1.36
2018-12-20T09:21:56.597Z,1.19
2018-12-20T09:24:25.665Z,1.29
2018-12-20T09:26:54.768Z,1.47
2018-12-20T09:29:23.750Z,1.61
2018-12-20T09:31:52.748Z,1.91
2018-12-20T09:34:21.618Z,2.01
2018-12-20T09:36:50.644Z,2.03
2018-12-20T09:39:19.625Z,1.93
2018-12-20T09:41:48.605Z,1.79
2018-12-20T09:44:17.562Z,1.75
2018-12-20T09:46:46.579Z,1.74
2018-12-20T09:49:15.594Z,1.63
2018-12-20T09:51:44.501Z,1.38
2018-12-20T09:54:13.458Z,1.57
2018-12-20T09:56:42.478Z,1.74
2018-12-20T09:59:11.392Z,1.82
2018-12-20T10:01:40.318Z,1.86
2018-12-20T10:04:09.287Z,1.88
2018-12-20T10:06:38.359Z,1.83
2018-12-20T10:09:08.025Z,1.86
2018-12-20T10:11:36.957Z,1.93
2018-12-20T10:14:06.032Z,1.78
2018-12-20T10:16:34.979Z,1.62
2018-12-20T10:19:03.958Z,1.47
2018-12-20T10:21:32.859Z,1.58
2018-12-20T10:24:01.749Z,1.75
2018-12-20T10:26:30.682Z,1.84
2018-12-20T10:28:59.722Z,1.97
2018-12-20T10:31:28.746Z,2.09
2018-12-20T10:33:57.681Z,2.08
2018-12-20T10:36:26.626Z,2.06
2018-12-20T10:38:55.714Z,1.99
2018-12-20T10:41:24.737Z,1.78
2018-12-20T10:43:53.722Z,1.82
2018-12-20T10:46:22.680Z,1.82
2018-12-20T10:48:51.629Z,1.70
2018-12-20T10:51:20.699Z,1.76
2018-12-20T10:53:49.721Z,1.66
2018-12-20T10:56:18.585Z,1.75
2018-12-20T10:58:47.604Z,1.52
2018-12-20T11:01:21.568Z,1.49
2018-12-20T11:03:54.729Z,1.51
2018-12-20T11:07:27.528Z,1.41
2018-12-20T11:10:01.625Z,1.42
2018-12-20T11:12:35.896Z,1.59
2018-12-20T11:15:05.281Z,1.51
2018-12-20T11:17:37.517Z,1.36
2018-12-20T11:20:05.569Z,1.31
2018-12-20T11:22:34.726Z,1.22
2018-12-20T11:25:03.749Z,1.20
2018-12-20T11:27:32.756Z,1.11
2018-12-20T11:30:01.713Z,1.18
2018-12-20T11:32:30.642Z,1.01
2018-12-20T11:34:59.594Z,0.96
2018-12-20T11:37:28.620Z,1.11
2018-12-20T11:39:59.723Z,1.14
2018-12-20T11:42:28.561Z,1.14
2018-12-20T11:44:57.591Z,1.24
2018-12-20T11:47:27.915Z,1.34
2018-12-20T11:49:57.353Z,1.40
2018-12-20T11:52:26.344Z,1.29
2018-12-20T11:54:55.262Z,1.34
2018-12-20T11:57:24.372Z,1.25
2018-12-20T11:59:53.418Z,1.02
2018-12-20T12:02:24.604Z,1.04
2018-12-20T12:04:53.549Z,0.96
2018-12-20T12:07:22.560Z,0.62
2018-12-20T12:09:51.554Z,0.50
2018-12-20T12:12:20.706Z,0.48
2018-12-20T12:14:49.687Z,0.54
2018-12-20T12:17:18.687Z,0.53
2018-12-20T12:19:47.751Z,0.42
2018-12-20T12:22:16.762Z,0.26
2018-12-20T12:24:45.721Z,0.22
2018-12-20T12:27:14.698Z,0.02
2018-12-20T12:29:43.790Z,0.08
2018-12-20T12:32:12.742Z,0.08
2018-12-20T12:34:41.709Z,0.03
2018-12-20T12:37:10.785Z,0.08
2018-12-20T12:39:39.770Z,0.02
2018-12-20T12:42:08.691Z,-0.08
2018-12-20T12:44:37.637Z,-0.08
2018-12-20T12:47:08.745Z,-0.13
2018-12-20T12:49:37.788Z,-0.08
2018-12-20T12:52:06.757Z,-0.19
2018-12-20T12:54:35.797Z,-0.41
2018-12-20T12:57:04.717Z,-0.44
2018-12-20T12:59:33.717Z,-0.49
2018-12-20T13:02:02.618Z,-0.51
2018-12-20T13:04:31.601Z,-0.58
2018-12-20T13:07:00.586Z,-0.80
2018-12-20T13:09:29.589Z,-0.75
2018-12-20T13:11:58.720Z,-0.71
2018-12-20T13:14:27.720Z,-0.82
2018-12-20T13:16:56.701Z,-1.04
2018-12-20T13:19:25.695Z,-0.95
2018-12-20T13:21:54.716Z,-0.97
2018-12-20T13:24:23.857Z,-0.93
2018-12-20T13:26:52.912Z,-1.00
2018-12-20T13:29:21.980Z,-0.90
2018-12-20T13:31:51.004Z,-0.86
2018-12-20T13:34:20.032Z,-0.97
2018-12-20T13:36:49.037Z,-0.97
2018-12-20T13:39:18.137Z,-0.83
2018-12-20T13:41:47.174Z,-0.86
2018-12-20T13:44:16.225Z,-0.88
2018-12-20T13:46:46.657Z,-0.81
2018-12-20T13:49:15.685Z,-0.63
2018-12-20T13:51:44.721Z,-0.66
2018-12-20T13:54:13.860Z,-0.60
2018-12-20T13:56:42.944Z,-0.50
2018-12-20T13:59:11.995Z,-0.51
2018-12-20T14:01:41.000Z,-0.46
2018-12-20T14:04:10.036Z,-0.41
2018-12-20T14:06:39.360Z,-0.41
2018-12-20T14:09:10.004Z,-0.50
2018-12-20T14:11:39.180Z,-0.48
2018-12-20T14:14:08.188Z,-0.50
2018-12-20T14:16:37.333Z,-0.63
2018-12-20T14:19:06.354Z,-0.59
2018-12-20T14:21:35.296Z,-0.63
2018-12-20T14:24:04.412Z,-0.73
2018-12-20T14:26:33.350Z,-0.90
2018-12-20T14:29:02.404Z,-0.87
2018-12-20T14:31:31.394Z,-0.85
2018-12-20T14:34:00.385Z,-0.82
2018-12-20T14:36:29.425Z,-0.83
2018-12-20T14:38:58.486Z,-0.94
2018-12-20T14:41:27.433Z,-0.99
2018-12-20T14:43:56.484Z,-1.02
2018-12-20T14:46:25.424Z,-1.01
2018-12-20T14:49:24.829Z,-1.05
2018-12-20T14:51:53.836Z,-1.08
2018-12-20T14:54:23.008Z,-1.07
2018-12-20T14:56:51.938Z,-1.10
2018-12-20T14:59:20.932Z,-1.27
2018-12-20T15:01:50.100Z,-1.28
2018-12-20T15:04:19.010Z,-1.34
2018-12-20T15:06:48.038Z,-1.36
2018-12-20T15:09:17.103Z,-1.32
2018-12-20T15:11:46.088Z,-1.31
2018-12-20T15:14:15.099Z,-1.25
2018-12-20T15:16:44.197Z,-1.30
2018-12-20T15:19:13.144Z,-1.32
2018-12-20T15:21:42.140Z,-1.27
2018-12-20T15:24:11.124Z,-1.35
2018-12-20T15:26:40.700Z,-1.40
2018-12-20T15:29:09.834Z,-1.33
2018-12-20T15:31:38.821Z,-1.37
2018-12-20T15:34:07.805Z,-1.32
2018-12-20T15:36:36.696Z,-1.30
2018-12-20T15:39:07.691Z,-1.21
2018-12-20T15:41:36.692Z,-1.16
2018-12-20T15:44:05.701Z,-1.16
2018-12-20T15:46:34.636Z,-1.16
2018-12-20T15:49:03.736Z,-1.13
2018-12-20T15:51:33.550Z,-1.21
2018-12-20T15:54:02.514Z,-1.21
2018-12-20T15:56:31.340Z,-1.32
2018-12-20T15:59:00.322Z,-1.37
2018-12-20T16:01:29.302Z,-1.42
2018-12-20T16:03:58.213Z,-1.43
2018-12-20T16:06:27.335Z,-1.37
2018-12-20T16:08:56.274Z,-1.32
2018-12-20T16:11:25.338Z,-1.29
2018-12-20T16:13:54.436Z,-1.32
2018-12-20T16:16:23.523Z,-1.27
2018-12-20T16:18:52.576Z,-1.29
2018-12-20T16:21:21.629Z,-1.30
2018-12-20T16:23:50.614Z,-1.23
2018-12-20T16:26:19.611Z,-1.17
2018-12-20T16:28:48.640Z,-1.13
2018-12-20T16:31:17.706Z,-1.16
2018-12-20T16:33:46.653Z,-1.13
2018-12-20T16:36:15.727Z,-1.09
2018-12-20T16:38:44.811Z,-1.09
2018-12-20T16:41:13.758Z,-1.08
2018-12-20T16:43:42.761Z,-1.15
2018-12-20T16:46:11.811Z,-1.18
2018-12-20T16:48:40.750Z,-1.24
2018-12-20T16:51:09.699Z,-1.29
2018-12-20T16:53:38.638Z,-1.26
2018-12-20T16:56:07.726Z,-1.28
2018-12-20T16:58:36.802Z,-1.26
2018-12-20T17:01:05.809Z,-1.22
2018-12-20T17:03:35.077Z,-1.25
2018-12-20T17:06:04.108Z,-1.23
2018-12-20T17:08:33.232Z,-1.39
2018-12-20T17:11:02.218Z,-1.40
2018-12-20T17:13:31.208Z,-1.41
2018-12-20T17:16:00.157Z,-1.41
2018-12-20T17:18:29.093Z,-1.40
2018-12-20T17:20:58.070Z,-1.38
2018-12-20T17:23:35.423Z,-1.44
2018-12-20T17:25:58.384Z,-1.39
2018-12-20T17:28:27.434Z,-1.47
2018-12-20T17:30:56.541Z,-1.44
2018-12-20T17:33:25.537Z,-1.46
2018-12-20T17:35:54.556Z,-1.46
2018-12-20T17:38:23.562Z,-1.46
2018-12-20T17:40:52.752Z,-1.38
2018-12-20T17:43:21.728Z,-1.32
2018-12-20T17:45:50.777Z,-1.28
2018-12-20T17:48:19.704Z,-1.23
2018-12-20T17:50:48.741Z,-1.22
2018-12-20T17:53:17.721Z,-1.16
2018-12-20T17:55:46.651Z,-1.16
2018-12-20T17:58:15.648Z,-1.16
2018-12-20T18:00:44.860Z,-1.18
2018-12-20T18:03:13.940Z,-1.19
2018-12-20T18:05:43.018Z,-1.18
2018-12-20T18:08:12.049Z,-1.19
2018-12-20T18:10:41.586Z,-1.21
2018-12-20T18:13:10.679Z,-1.21
2018-12-20T18:15:39.677Z,-1.15
2018-12-20T18:18:08.688Z,-1.09
2018-12-20T18:20:37.779Z,-1.09
2018-12-20T18:23:06.796Z,-1.12
2018-12-20T18:25:35.738Z,-1.16
2018-12-20T18:28:04.696Z,-1.14
2018-12-20T18:30:33.692Z,-1.18
2018-12-20T18:33:02.733Z,-1.20
2018-12-20T18:35:31.678Z,-1.25
2018-12-20T18:38:00.754Z,-1.23
2018-12-20T18:40:29.929Z,-1.17
2018-12-20T18:42:58.923Z,-1.15
2018-12-20T18:45:27.862Z,-1.17
2018-12-20T18:47:56.944Z,-1.16
2018-12-20T18:50:25.937Z,-1.13
2018-12-20T18:52:54.873Z,-1.19
2018-12-20T18:55:23.979Z,-1.18
2018-12-20T18:57:52.961Z,-1.22
2018-12-20T19:00:21.969Z,-1.31
2018-12-20T19:02:51.064Z,-1.20
2018-12-20T19:05:20.070Z,-1.17
2018-12-20T19:07:49.001Z,-1.20
2018-12-20T19:10:18.061Z,-1.18
2018-12-20T19:12:47.080Z,-1.15
2018-12-20T19:15:16.051Z,-1.14
2018-12-20T19:17:45.053Z,-1.12
2018-12-20T19:20:16.376Z,-1.08
2018-12-20T19:22:45.063Z,-1.06
2018-12-20T19:25:14.020Z,-1.01
2018-12-20T19:27:42.940Z,-1.03
2018-12-20T19:30:12.306Z,-1.09
2018-12-20T19:32:41.341Z,-1.07
2018-12-20T19:35:10.550Z,-1.10
2018-12-20T19:37:39.573Z,-1.10
2018-12-20T19:40:10.922Z,-1.10
2018-12-20T19:42:39.906Z,-1.07
2018-12-20T19:45:08.892Z,-0.99
2018-12-20T19:47:38.246Z,-1.04
2018-12-20T19:50:09.205Z,-1.08
2018-12-20T19:52:38.191Z,-1.09
2018-12-20T19:55:07.653Z,-1.13
2018-12-20T19:57:36.686Z,-1.19
2018-12-20T20:00:10.104Z,-1.22
2018-12-20T20:02:39.149Z,-1.24
2018-12-20T20:05:08.189Z,-1.33
2018-12-20T20:07:37.257Z,-1.32
2018-12-20T20:10:08.353Z,-1.29
2018-12-20T20:12:37.356Z,-1.23
2018-12-20T20:15:16.041Z,-1.18
2018-12-20T20:17:39.605Z,-1.13
2018-12-20T20:20:13.715Z,-1.17
2018-12-20T20:22:39.657Z,-1.16
2018-12-20T20:25:09.301Z,-1.17
2018-12-20T20:27:38.337Z,-1.23
2018-12-20T20:30:10.653Z,-1.33
2018-12-20T20:32:39.640Z,-1.36
2018-12-20T20:35:08.829Z,-1.37
2018-12-20T20:37:37.825Z,-1.47
2018-12-20T20:40:09.121Z,-1.51
2018-12-20T20:42:38.085Z,-1.54
2018-12-20T20:45:07.698Z,-1.58
2018-12-20T20:47:36.644Z,-1.58
2018-12-20T20:50:07.089Z,-1.55
2018-12-20T20:52:36.180Z,-1.53
2018-12-20T20:55:05.974Z,-1.51
2018-12-20T20:57:35.001Z,-1.44
2018-12-20T21:00:04.250Z,-1.36
2018-12-20T21:02:33.097Z,-1.37
2018-12-20T21:05:02.054Z,-1.32
2018-12-20T21:07:31.037Z,-1.26
2018-12-20T21:09:59.919Z,-1.30
2018-12-20T21:12:28.965Z,-1.34
2018-12-20T21:14:57.946Z,-1.37
2018-12-20T21:17:26.941Z,-1.41
2018-12-20T21:19:55.983Z,-1.42
2018-12-20T21:22:24.940Z,-1.38
2018-12-20T21:24:53.916Z,-1.39
2018-12-20T21:27:22.952Z,-1.37
2018-12-20T21:29:51.930Z,-1.37
2018-12-20T21:32:20.909Z,-1.38
2018-12-20T21:34:49.885Z,-1.50
2018-12-20T21:37:18.829Z,-1.52
2018-12-20T21:39:47.830Z,-1.52
2018-12-20T21:42:16.917Z,-1.52
2018-12-20T21:44:46.028Z,-1.47
2018-12-20T21:47:14.915Z,-1.44
2018-12-20T21:49:43.956Z,-1.36
2018-12-20T21:52:13.309Z,-1.31
2018-12-20T21:54:42.288Z,-1.24
2018-12-20T21:57:11.299Z,-1.20
2018-12-20T21:59:40.445Z,-1.18
2018-12-20T22:02:09.469Z,-1.28
2018-12-20T22:04:38.444Z,-1.29
2018-12-20T22:07:07.517Z,-1.29
2018-12-20T22:09:36.397Z,-1.24
2018-12-20T22:12:05.429Z,-1.24
2018-12-20T22:14:34.455Z,-1.21
2018-12-20T22:17:03.455Z,-1.25
2018-12-20T22:19:32.505Z,-1.22
2018-12-20T22:22:01.478Z,-1.24
2018-12-20T22:24:30.413Z,-1.32
2018-12-20T22:26:59.244Z,-1.30
2018-12-20T22:29:28.214Z,-1.24
2018-12-20T22:31:57.235Z,-1.31
2018-12-20T22:34:26.214Z,-1.32
2018-12-20T22:36:55.100Z,-1.34
2018-12-20T22:39:23.985Z,-1.34
2018-12-20T22:41:53.022Z,-1.27
2018-12-20T22:44:22.009Z,-1.25
2018-12-20T22:46:51.088Z,-1.33
2018-12-20T22:49:20.024Z,-1.34
2018-12-20T22:51:49.001Z,-1.39
2018-12-20T22:54:17.971Z,-1.36
2018-12-20T22:56:46.900Z,-1.35
2018-12-20T22:59:15.829Z,-1.34
2018-12-20T23:01:44.879Z,-1.28
2018-12-20T23:04:13.797Z,-1.33
2018-12-20T23:06:42.828Z,-1.35
2018-12-20T23:09:11.717Z,-1.39
2018-12-20T23:11:40.669Z,-1.43
2018-12-20T23:14:09.625Z,-1.38
2018-12-20T23:16:38.556Z,-1.44
2018-12-20T23:19:07.501Z,-1.45
2018-12-20T23:21:36.489Z,-1.42
2018-12-20T23:24:05.455Z,-1.35
2018-12-20T23:26:34.452Z,-1.32
2018-12-20T23:29:03.609Z,-1.36
2018-12-20T23:31:32.669Z,-1.46
2018-12-20T23:34:01.693Z,-1.39
2018-12-20T23:36:30.717Z,-1.34
2018-12-20T23:38:59.729Z,-1.30
2018-12-20T23:41:28.608Z,-1.33
2018-12-20T23:43:57.623Z,-1.29
2018-12-20T23:46:26.595Z,-1.30
2018-12-20T23:48:55.535Z,-1.27
2018-12-20T23:51:24.505Z,-1.25
2018-12-20T23:53:53.498Z,-1.30
2018-12-20T23:56:22.369Z,-1.33
2018-12-20T23:58:51.401Z,-1.32
